createdAt,value
2022-07-29T00:00:13.955Z,9.47
2022-07-29T00:02:36.028Z,8.57
2022-07-29T00:04:59.796Z,9.20
2022-07-29T00:07:22.131Z,8.00
2022-07-29T00:09:51.541Z,8.80
2022-07-29T00:12:14.490Z,8.80
2022-07-29T00:14:43.697Z,7.90
2022-07-29T00:17:06.765Z,8.90
2022-07-29T00:19:28.816Z,8.50
2022-07-29T00:21:52.034Z,8.40
2022-07-29T00:24:14.397Z,9.07
2022-07-29T00:26:36.792Z,8.17
2022-07-29T00:29:31.108Z,8.97
2022-07-29T00:31:41.714Z,9.33
2022-07-29T00:34:03.722Z,9.43
2022-07-29T00:36:24.585Z,7.93
2022-07-29T00:38:47.872Z,9.07
2022-07-29T00:41:10.096Z,8.30
2022-07-29T00:43:32.096Z,8.30
2022-07-29T00:45:54.047Z,8.23
2022-07-29T00:48:16.340Z,8.37
2022-07-29T00:50:38.973Z,8.97
2022-07-29T00:53:01.249Z,8.87
2022-07-29T00:55:24.692Z,9.60
2022-07-29T00:57:47.745Z,10.33
2022-07-29T01:00:12.000Z,7.93
2022-07-29T01:02:34.476Z,8.27
2022-07-29T01:04:57.986Z,8.70
2022-07-29T01:07:20.190Z,9.30
2022-07-29T01:09:46.592Z,8.87
2022-07-29T01:12:10.975Z,8.93
2022-07-29T01:14:33.877Z,8.37
2022-07-29T01:17:02.571Z,7.50
2022-07-29T01:19:36.672Z,9.53
2022-07-29T01:22:00.578Z,8.57
2022-07-29T01:24:32.616Z,9.20
2022-07-29T01:26:59.258Z,8.90
2022-07-29T01:29:24.875Z,8.70
2022-07-29T01:31:58.522Z,9.03
2022-07-29T01:34:28.197Z,8.33
2022-07-29T01:36:51.581Z,8.27
2022-07-29T01:39:15.250Z,10.77
2022-07-29T01:41:39.052Z,8.00
2022-07-29T01:44:04.288Z,10.07
2022-07-29T01:46:30.451Z,8.93
2022-07-29T01:48:56.361Z,9.10
2022-07-29T01:51:20.943Z,8.90
2022-07-29T01:53:47.005Z,9.20
2022-07-29T01:56:11.884Z,9.83
2022-07-29T01:58:35.310Z,10.50
2022-07-29T02:00:58.901Z,9.27
2022-07-29T02:03:22.942Z,8.57
2022-07-29T02:05:48.384Z,9.80
2022-07-29T02:08:11.060Z,8.80
2022-07-29T02:10:35.480Z,8.30
2022-07-29T02:13:00.030Z,7.70
2022-07-29T02:15:22.513Z,9.37
2022-07-29T02:17:45.326Z,8.90
2022-07-29T02:20:10.766Z,9.10
2022-07-29T02:22:34.080Z,8.83
2022-07-29T02:24:56.619Z,8.67
2022-07-29T02:27:20.269Z,8.50
2022-07-29T02:29:42.779Z,9.70
2022-07-29T02:32:05.978Z,9.90
2022-07-29T02:34:28.671Z,8.83
2022-07-29T02:36:52.437Z,10.10
2022-07-29T02:39:15.815Z,10.43
2022-07-29T02:41:43.323Z,9.30
2022-07-29T02:44:07.926Z,9.03
2022-07-29T02:46:33.567Z,10.00
2022-07-29T02:48:58.623Z,9.53
2022-07-29T02:51:41.077Z,9.80
2022-07-29T02:54:07.687Z,8.87
2022-07-29T02:56:35.823Z,8.87
2022-07-29T02:58:59.599Z,9.33
2022-07-29T03:01:23.919Z,9.90
2022-07-29T03:03:47.743Z,9.30
2022-07-29T03:06:10.361Z,9.90
2022-07-29T03:08:53.639Z,9.00
2022-07-29T03:11:18.248Z,8.90
2022-07-29T03:13:40.361Z,8.93
2022-07-29T03:16:02.943Z,9.60
2022-07-29T03:18:25.337Z,9.50
2022-07-29T03:20:47.221Z,9.90
2022-07-29T03:23:09.197Z,9.17
2022-07-29T03:25:31.566Z,9.47
2022-07-29T03:27:54.899Z,9.77
2022-07-29T03:30:21.804Z,9.37
2022-07-29T03:32:44.758Z,9.90
2022-07-29T03:35:07.901Z,10.37
2022-07-29T03:37:31.492Z,10.97
2022-07-29T03:39:55.487Z,10.30
2022-07-29T03:42:19.156Z,9.70
2022-07-29T03:44:44.083Z,10.00
2022-07-29T03:47:07.855Z,10.00
2022-07-29T03:49:30.814Z,11.53
2022-07-29T03:51:53.204Z,9.87
2022-07-29T03:54:15.991Z,9.80
2022-07-29T03:56:41.167Z,9.03
2022-07-29T03:59:04.385Z,9.30
2022-07-29T04:01:28.916Z,9.30
2022-07-29T04:03:52.105Z,9.60
2022-07-29T04:06:14.952Z,10.00
2022-07-29T04:08:37.447Z,9.53
2022-07-29T04:10:59.488Z,8.37
2022-07-29T04:13:21.982Z,8.97
2022-07-29T04:15:44.749Z,10.80
2022-07-29T04:18:08.539Z,9.60
2022-07-29T04:20:30.653Z,9.53
2022-07-29T04:22:52.719Z,10.50
2022-07-29T04:25:14.825Z,11.10
2022-07-29T04:27:36.969Z,9.70
2022-07-29T04:29:59.100Z,9.80
2022-07-29T04:32:21.907Z,10.00
2022-07-29T04:34:47.523Z,10.70
2022-07-29T04:37:09.678Z,8.53
2022-07-29T04:39:31.755Z,9.80
2022-07-29T04:41:54.899Z,9.37
2022-07-29T04:44:18.989Z,9.63
2022-07-29T04:46:41.973Z,9.57
2022-07-29T04:49:04.536Z,9.30
2022-07-29T04:51:28.336Z,9.70
2022-07-29T04:53:50.607Z,9.00
2022-07-29T04:56:12.584Z,8.83
2022-07-29T04:58:36.864Z,8.53
2022-07-29T05:00:58.788Z,9.30
2022-07-29T05:03:20.927Z,9.50
2022-07-29T05:05:43.288Z,7.70
2022-07-29T05:08:07.227Z,7.73
2022-07-29T05:10:29.793Z,8.03
2022-07-29T05:12:52.055Z,9.00
2022-07-29T05:15:14.475Z,9.63
2022-07-29T05:17:36.356Z,8.33
2022-07-29T05:19:58.312Z,7.83
2022-07-29T05:22:20.574Z,7.23
2022-07-29T05:24:43.930Z,8.40
2022-07-29T05:27:05.969Z,7.30
2022-07-29T05:29:43.403Z,6.83
2022-07-29T05:32:07.854Z,7.97
2022-07-29T05:34:29.924Z,7.90
2022-07-29T05:36:52.081Z,7.07
2022-07-29T05:39:14.271Z,8.30
2022-07-29T05:41:37.597Z,7.73
2022-07-29T05:43:59.870Z,7.50
2022-07-29T05:46:21.993Z,8.00
2022-07-29T05:48:44.812Z,6.93
2022-07-29T05:51:07.356Z,7.93
2022-07-29T05:53:29.845Z,6.80
2022-07-29T05:55:51.951Z,7.83
2022-07-29T05:58:15.502Z,7.27
2022-07-29T06:00:37.376Z,6.27
2022-07-29T06:02:59.362Z,7.57
2022-07-29T06:05:21.301Z,6.93
2022-07-29T06:07:50.130Z,6.73
2022-07-29T06:10:14.274Z,7.43
2022-07-29T06:12:36.237Z,6.00
2022-07-29T06:14:59.480Z,6.87
2022-07-29T06:17:21.692Z,6.00
2022-07-29T06:19:46.330Z,6.00
2022-07-29T06:22:08.862Z,5.90
2022-07-29T06:24:31.164Z,5.17
2022-07-29T06:26:53.366Z,5.87
2022-07-29T06:29:18.872Z,5.10
2022-07-29T06:31:42.506Z,6.20
2022-07-29T06:34:07.831Z,5.33
2022-07-29T06:36:30.186Z,5.37
2022-07-29T06:38:54.360Z,4.40
2022-07-29T06:41:18.985Z,5.40
2022-07-29T06:43:50.783Z,4.70
2022-07-29T06:46:18.497Z,5.03
2022-07-29T06:48:43.302Z,4.47
2022-07-29T06:51:05.745Z,5.00
2022-07-29T06:53:27.916Z,5.37
2022-07-29T06:55:50.336Z,5.77
2022-07-29T06:58:12.327Z,3.90
2022-07-29T07:00:34.312Z,4.90
2022-07-29T07:02:56.858Z,4.37
2022-07-29T07:05:20.914Z,4.50
2022-07-29T07:07:43.842Z,3.97
2022-07-29T07:10:09.424Z,4.30
2022-07-29T07:12:31.594Z,4.70
2022-07-29T07:14:53.435Z,4.13
2022-07-29T07:17:15.747Z,4.83
2022-07-29T07:19:37.612Z,4.40
2022-07-29T07:22:01.327Z,4.80
2022-07-29T07:24:23.853Z,4.70
2022-07-29T07:26:45.969Z,4.37
2022-07-29T07:29:07.973Z,4.80
2022-07-29T07:31:30.088Z,3.60
2022-07-29T07:33:53.118Z,4.20
2022-07-29T07:36:15.199Z,4.43
2022-07-29T07:38:38.908Z,4.33
2022-07-29T07:41:01.021Z,4.20
2022-07-29T07:43:23.624Z,4.57
2022-07-29T07:45:46.186Z,4.30
2022-07-29T07:48:11.118Z,4.30
2022-07-29T07:50:33.181Z,4.00
2022-07-29T07:52:55.965Z,3.90
2022-07-29T07:55:19.469Z,3.60
2022-07-29T07:57:41.752Z,4.07
2022-07-29T08:00:04.392Z,3.70
2022-07-29T08:02:26.319Z,2.93
2022-07-29T08:04:48.537Z,2.80
2022-07-29T08:07:10.740Z,3.40
2022-07-29T08:09:32.722Z,3.00
2022-07-29T08:11:56.058Z,3.30
2022-07-29T08:14:18.511Z,3.10
2022-07-29T08:16:41.475Z,3.10
2022-07-29T08:19:03.894Z,2.93
2022-07-29T08:21:26.905Z,3.90
2022-07-29T08:23:59.722Z,3.30
2022-07-29T08:26:23.649Z,3.57
2022-07-29T08:28:50.380Z,3.60
2022-07-29T08:31:13.020Z,2.90
2022-07-29T08:33:35.511Z,3.10
2022-07-29T08:35:58.036Z,2.97
2022-07-29T08:38:20.084Z,2.77
2022-07-29T08:40:42.369Z,3.17
2022-07-29T08:43:08.130Z,3.50
2022-07-29T08:45:32.416Z,3.40
2022-07-29T08:47:55.515Z,3.30
2022-07-29T08:50:17.792Z,3.63
2022-07-29T08:52:41.133Z,3.90
2022-07-29T08:55:03.571Z,4.00
2022-07-29T08:57:25.989Z,3.77
2022-07-29T08:59:52.369Z,4.00
2022-07-29T09:02:21.792Z,4.07
2022-07-29T09:04:44.076Z,4.13
2022-07-29T09:07:07.747Z,4.00
2022-07-29T09:09:30.054Z,3.53
2022-07-29T09:11:52.636Z,3.63
2022-07-29T09:14:15.782Z,4.20
2022-07-29T09:16:53.201Z,4.10
2022-07-29T09:19:23.520Z,3.37
2022-07-29T09:22:01.107Z,4.07
2022-07-29T09:24:25.719Z,4.87
2022-07-29T09:26:48.467Z,4.57
2022-07-29T09:29:11.912Z,4.70
2022-07-29T09:31:35.774Z,4.73
2022-07-29T09:34:01.233Z,4.43
2022-07-29T09:36:25.429Z,4.90
2022-07-29T09:38:59.936Z,4.93
2022-07-29T09:41:22.115Z,5.80
2022-07-29T09:43:55.992Z,4.70
2022-07-29T09:46:18.547Z,5.00
2022-07-29T09:48:40.896Z,5.43
2022-07-29T09:51:03.414Z,4.53
2022-07-29T09:53:36.943Z,4.70
2022-07-29T09:56:00.201Z,5.20
2022-07-29T09:58:23.493Z,5.50
2022-07-29T10:00:46.325Z,4.27
2022-07-29T10:03:08.650Z,5.07
2022-07-29T10:05:36.064Z,4.00
2022-07-29T10:07:59.953Z,4.87
2022-07-29T10:10:24.810Z,4.57
2022-07-29T10:12:51.992Z,3.60
2022-07-29T10:15:14.335Z,4.27
2022-07-29T10:17:36.696Z,4.60
2022-07-29T10:20:07.555Z,4.73
2022-07-29T10:22:52.311Z,4.27
2022-07-29T10:25:15.627Z,4.10
2022-07-29T10:27:40.293Z,4.77
2022-07-29T10:30:02.882Z,4.83
2022-07-29T10:32:33.120Z,5.20
2022-07-29T10:35:03.648Z,5.00
2022-07-29T10:37:28.325Z,4.40
2022-07-29T10:40:02.858Z,5.00
2022-07-29T10:42:29.500Z,4.67
2022-07-29T10:44:58.015Z,4.53
2022-07-29T10:47:25.364Z,5.57
2022-07-29T10:49:57.776Z,4.37
2022-07-29T10:52:20.769Z,4.93
2022-07-29T10:54:51.163Z,4.60
2022-07-29T10:57:14.144Z,5.30
2022-07-29T10:59:36.683Z,4.33
2022-07-29T11:02:27.792Z,4.83
2022-07-29T11:05:02.196Z,5.40
2022-07-29T11:07:24.375Z,4.70
2022-07-29T11:10:26.974Z,4.27
2022-07-29T11:12:54.228Z,4.60
2022-07-29T11:15:19.997Z,4.57
2022-07-29T11:17:59.439Z,3.70
2022-07-29T11:20:37.863Z,3.97
2022-07-29T11:23:00.499Z,3.90
2022-07-29T11:25:23.311Z,3.50
2022-07-29T11:28:11.925Z,3.30
2022-07-29T11:30:48.789Z,3.10
2022-07-29T11:33:37.460Z,3.20
2022-07-29T11:36:16.902Z,3.07
2022-07-29T11:38:41.644Z,3.07
2022-07-29T11:41:23.045Z,3.33
2022-07-29T11:43:52.854Z,4.60
2022-07-29T11:46:14.949Z,2.83
2022-07-29T11:48:38.956Z,4.00
2022-07-29T11:51:03.128Z,3.67
2022-07-29T11:53:28.900Z,3.80
2022-07-29T11:55:58.587Z,4.03
2022-07-29T11:58:24.989Z,4.23
2022-07-29T12:00:49.250Z,4.13
2022-07-29T12:03:14.965Z,4.27
2022-07-29T12:05:38.882Z,4.07
2022-07-29T12:08:15.221Z,4.43
2022-07-29T12:10:39.167Z,3.63
2022-07-29T12:13:01.030Z,4.20
2022-07-29T12:15:25.012Z,4.47
2022-07-29T12:18:14.286Z,4.10
2022-07-29T12:20:36.589Z,4.33
2022-07-29T12:22:59.394Z,4.53
2022-07-29T12:25:36.986Z,3.90
2022-07-29T12:28:04.484Z,4.17
2022-07-29T12:30:36.596Z,3.73
2022-07-29T12:33:00.616Z,4.00
2022-07-29T12:35:23.231Z,3.93
2022-07-29T12:37:46.490Z,4.73
2022-07-29T12:40:09.514Z,4.17
2022-07-29T12:42:31.506Z,4.60
2022-07-29T12:44:55.339Z,5.43
2022-07-29T12:47:19.059Z,5.00
2022-07-29T12:49:42.083Z,4.97
2022-07-29T12:52:24.159Z,5.50
2022-07-29T12:54:49.659Z,5.53
2022-07-29T12:57:19.931Z,5.20
2022-07-29T12:59:42.358Z,5.50
2022-07-29T13:02:06.142Z,4.87
2022-07-29T13:04:28.674Z,4.53
2022-07-29T13:06:51.231Z,5.60
2022-07-29T13:09:14.388Z,5.50
2022-07-29T13:11:36.963Z,5.23
2022-07-29T13:14:05.820Z,4.87
2022-07-29T13:16:29.673Z,3.40
2022-07-29T13:19:05.912Z,3.83
2022-07-29T13:21:28.055Z,3.57
2022-07-29T13:23:50.050Z,3.40
2022-07-29T13:26:13.502Z,3.80
2022-07-29T13:28:35.441Z,3.97
2022-07-29T13:30:57.703Z,3.30
2022-07-29T13:33:20.196Z,4.27
2022-07-29T13:35:43.945Z,4.40
2022-07-29T13:38:06.612Z,4.03
2022-07-29T13:40:30.135Z,3.87
2022-07-29T13:42:52.348Z,3.50
2022-07-29T13:45:14.610Z,4.17
2022-07-29T13:47:36.760Z,3.67
2022-07-29T13:49:58.748Z,3.73
2022-07-29T13:52:22.480Z,3.20
2022-07-29T13:54:46.077Z,3.80
2022-07-29T13:57:08.467Z,3.20
2022-07-29T13:59:30.368Z,3.50
2022-07-29T14:01:52.529Z,3.90
2022-07-29T14:04:14.977Z,2.93
2022-07-29T14:06:37.162Z,4.10
2022-07-29T14:09:03.865Z,3.57
2022-07-29T14:11:26.062Z,3.97
2022-07-29T14:13:48.319Z,3.63
2022-07-29T14:16:10.962Z,3.60
2022-07-29T14:18:33.074Z,3.80
2022-07-29T14:20:55.306Z,3.80
2022-07-29T14:23:17.425Z,3.53
2022-07-29T14:25:44.589Z,3.90
2022-07-29T14:28:08.033Z,3.50
2022-07-29T14:30:30.223Z,3.53
2022-07-29T14:32:52.154Z,4.07
2022-07-29T14:35:14.413Z,3.87
2022-07-29T14:37:40.140Z,3.83
2022-07-29T14:40:04.808Z,4.10
2022-07-29T14:42:28.551Z,4.27
2022-07-29T14:44:50.716Z,4.17
2022-07-29T14:47:12.814Z,3.37
2022-07-29T14:49:34.934Z,3.80
2022-07-29T14:51:57.422Z,3.67
2022-07-29T14:54:20.231Z,4.00
2022-07-29T14:56:46.682Z,3.53
2022-07-29T14:59:10.477Z,3.83
2022-07-29T15:01:32.700Z,4.23
2022-07-29T15:03:59.567Z,3.70
2022-07-29T15:06:22.097Z,4.20
2022-07-29T15:08:44.198Z,4.50
2022-07-29T15:11:06.107Z,4.07
2022-07-29T15:13:28.356Z,4.07
2022-07-29T15:15:51.815Z,5.47
2022-07-29T15:18:13.916Z,4.20
2022-07-29T15:20:35.959Z,5.40
2022-07-29T15:22:58.219Z,4.10
2022-07-29T15:25:20.705Z,4.23
2022-07-29T15:27:43.222Z,4.13
2022-07-29T15:30:30.307Z,5.80
2022-07-29T15:32:56.755Z,4.17
2022-07-29T15:35:19.694Z,4.27
2022-07-29T15:37:48.831Z,4.60
2022-07-29T15:40:12.576Z,5.03
2022-07-29T15:42:34.543Z,4.87
2022-07-29T15:44:56.899Z,5.20
2022-07-29T15:47:18.784Z,4.60
2022-07-29T15:49:47.289Z,4.90
2022-07-29T15:52:12.099Z,5.20
2022-07-29T15:54:35.706Z,4.40
2022-07-29T15:56:58.290Z,4.50
2022-07-29T15:59:22.368Z,4.57
2022-07-29T16:01:44.949Z,5.00
2022-07-29T16:04:07.313Z,4.60
2022-07-29T16:06:32.079Z,5.40
2022-07-29T16:08:55.784Z,6.20
2022-07-29T16:11:17.917Z,6.80
2022-07-29T16:13:39.770Z,6.80
2022-07-29T16:16:03.172Z,6.37
2022-07-29T16:18:30.109Z,5.60
2022-07-29T16:20:52.906Z,5.37
2022-07-29T16:23:16.579Z,6.43
2022-07-29T16:25:58.601Z,5.40
2022-07-29T16:28:20.493Z,6.17
2022-07-29T16:30:42.499Z,5.80
2022-07-29T16:33:08.247Z,6.70
2022-07-29T16:35:39.727Z,4.87
2022-07-29T16:38:02.695Z,5.73
2022-07-29T16:40:26.401Z,5.80
2022-07-29T16:42:48.551Z,5.50
2022-07-29T16:45:11.220Z,5.70
2022-07-29T16:47:33.331Z,6.10
2022-07-29T16:49:56.474Z,6.20
2022-07-29T16:52:18.816Z,6.07
2022-07-29T16:54:41.276Z,6.43
2022-07-29T16:57:05.209Z,6.10
2022-07-29T16:59:27.286Z,6.20
2022-07-29T17:01:49.282Z,6.23
2022-07-29T17:04:12.044Z,6.00
2022-07-29T17:06:35.130Z,7.20
2022-07-29T17:08:57.371Z,5.60
2022-07-29T17:11:19.643Z,7.47
2022-07-29T17:13:43.238Z,6.60
2022-07-29T17:16:05.402Z,6.23
2022-07-29T17:18:28.240Z,6.33
2022-07-29T17:20:50.194Z,6.33
2022-07-29T17:23:12.468Z,7.23
2022-07-29T17:25:34.782Z,6.30
2022-07-29T17:28:00.913Z,6.97
2022-07-29T17:30:24.884Z,6.80
2022-07-29T17:32:47.085Z,6.60
2022-07-29T17:35:29.732Z,6.63
2022-07-29T17:37:51.814Z,6.13
2022-07-29T17:40:14.474Z,7.00
2022-07-29T17:42:37.137Z,7.33
2022-07-29T17:44:59.047Z,7.10
2022-07-29T17:47:22.355Z,7.27
2022-07-29T17:49:44.256Z,7.10
2022-07-29T17:52:06.507Z,7.70
2022-07-29T17:54:28.430Z,7.57
2022-07-29T17:56:50.718Z,7.03
2022-07-29T17:59:12.929Z,7.23
2022-07-29T18:01:35.269Z,7.70
2022-07-29T18:04:00.270Z,6.50
2022-07-29T18:06:22.446Z,7.40
2022-07-29T18:08:47.471Z,7.90
2022-07-29T18:11:09.550Z,7.53
2022-07-29T18:13:37.258Z,6.53
2022-07-29T18:16:00.607Z,7.37
2022-07-29T18:18:22.742Z,8.40
2022-07-29T18:20:46.662Z,7.50
2022-07-29T18:23:09.037Z,7.20
2022-07-29T18:25:31.395Z,7.97
2022-07-29T18:27:58.429Z,7.80
2022-07-29T18:30:22.655Z,7.03
2022-07-29T18:32:59.095Z,7.90
2022-07-29T18:35:27.409Z,7.50
2022-07-29T18:38:01.135Z,8.03
2022-07-29T18:40:25.850Z,7.30
2022-07-29T18:42:48.174Z,6.83
2022-07-29T18:45:12.225Z,7.37
2022-07-29T18:47:42.816Z,7.80
2022-07-29T18:50:10.542Z,8.60
2022-07-29T18:52:32.768Z,7.93
2022-07-29T18:54:56.653Z,6.77
2022-07-29T18:57:55.246Z,7.60
2022-07-29T19:00:01.608Z,8.30
2022-07-29T19:02:24.144Z,7.27
2022-07-29T19:04:46.248Z,8.40
2022-07-29T19:07:08.296Z,8.40
2022-07-29T19:09:30.738Z,8.50
2022-07-29T19:11:56.290Z,7.97
2022-07-29T19:14:19.307Z,7.90
2022-07-29T19:16:44.883Z,7.90
2022-07-29T19:19:07.423Z,8.07
2022-07-29T19:21:30.027Z,7.80
2022-07-29T19:24:01.512Z,7.80
2022-07-29T19:26:29.856Z,8.50
2022-07-29T19:28:53.458Z,8.83
2022-07-29T19:31:15.788Z,8.93
2022-07-29T19:33:38.181Z,9.80
2022-07-29T19:36:00.262Z,9.47
2022-07-29T19:38:22.289Z,9.90
2022-07-29T19:40:44.776Z,8.70
2022-07-29T19:43:50.752Z,7.93
2022-07-29T19:45:51.004Z,9.03
2022-07-29T19:48:12.898Z,8.03
2022-07-29T19:50:35.221Z,9.20
2022-07-29T19:52:57.516Z,8.80
2022-07-29T19:55:20.246Z,9.00
2022-07-29T19:57:42.540Z,8.47
2022-07-29T20:00:04.761Z,6.87
2022-07-29T20:02:34.738Z,7.03
2022-07-29T20:04:56.814Z,7.57
2022-07-29T20:07:18.696Z,8.80
2022-07-29T20:09:41.598Z,8.13
2022-07-29T20:12:04.898Z,6.73
2022-07-29T20:14:26.892Z,8.20
2022-07-29T20:16:49.220Z,9.20
2022-07-29T20:19:13.067Z,7.73
2022-07-29T20:21:44.944Z,8.43
2022-07-29T20:24:08.442Z,7.90
2022-07-29T20:26:38.717Z,9.00
2022-07-29T20:29:01.675Z,9.00
2022-07-29T20:31:26.684Z,8.70
2022-07-29T20:33:50.073Z,7.00
2022-07-29T20:36:13.477Z,6.83
2022-07-29T20:38:45.496Z,7.67
2022-07-29T20:41:16.635Z,7.40
2022-07-29T20:43:41.414Z,6.43
2022-07-29T20:46:03.747Z,5.20
2022-07-29T20:48:26.247Z,3.50
2022-07-29T20:50:48.951Z,4.17
2022-07-29T20:53:13.719Z,5.37
2022-07-29T20:55:39.912Z,4.17
2022-07-29T20:58:14.394Z,3.40
2022-07-29T21:00:36.739Z,3.20
2022-07-29T21:03:12.567Z,3.23
2022-07-29T21:05:34.941Z,4.80
2022-07-29T21:07:58.267Z,5.13
2022-07-29T21:10:22.313Z,5.37
2022-07-29T21:12:44.468Z,5.57
2022-07-29T21:15:07.116Z,4.90
2022-07-29T21:17:31.651Z,6.17
2022-07-29T21:19:55.620Z,5.30
2022-07-29T21:22:18.987Z,3.97
2022-07-29T21:24:41.279Z,3.80
2022-07-29T21:27:23.070Z,3.50
2022-07-29T21:29:45.786Z,4.17
2022-07-29T21:32:08.357Z,5.70
2022-07-29T21:34:30.347Z,6.87
2022-07-29T21:36:52.495Z,9.10
2022-07-29T21:39:15.036Z,7.43
2022-07-29T21:41:37.532Z,7.10
2022-07-29T21:44:01.734Z,7.97
2022-07-29T21:46:24.512Z,7.83
2022-07-29T21:48:46.934Z,7.27
2022-07-29T21:51:09.063Z,6.30
2022-07-29T21:53:31.444Z,6.70
2022-07-29T21:55:54.293Z,6.43
2022-07-29T21:58:17.641Z,6.20
2022-07-29T22:00:41.430Z,7.37
2022-07-29T22:03:04.238Z,7.60
2022-07-29T22:05:26.737Z,6.97
2022-07-29T22:07:55.620Z,6.87
2022-07-29T22:10:20.420Z,5.73
2022-07-29T22:12:42.493Z,7.50
2022-07-29T22:15:05.587Z,5.63
2022-07-29T22:17:29.454Z,5.20
2022-07-29T22:19:54.496Z,5.73
2022-07-29T22:22:16.596Z,5.73
2022-07-29T22:24:39.083Z,5.97
2022-07-29T22:27:01.701Z,5.60
2022-07-29T22:29:24.137Z,7.50
2022-07-29T22:31:46.835Z,7.43
2022-07-29T22:34:13.226Z,6.50
2022-07-29T22:36:35.614Z,7.83
2022-07-29T22:38:58.553Z,8.10
2022-07-29T22:41:20.610Z,7.00
2022-07-29T22:46:47.526Z,8.13
2022-07-29T22:48:53.152Z,7.60
2022-07-29T22:50:58.823Z,7.73
2022-07-29T22:53:03.293Z,7.37
2022-07-29T22:55:10.064Z,6.97
2022-07-29T22:57:13.762Z,8.17
2022-07-29T22:59:17.810Z,6.30
2022-07-29T23:01:37.960Z,7.93
2022-07-29T23:03:51.282Z,7.20
2022-07-29T23:05:56.767Z,7.23
2022-07-29T23:08:03.282Z,7.70
2022-07-29T23:10:10.809Z,7.60
2022-07-29T23:12:14.754Z,8.70
2022-07-29T23:14:19.186Z,7.17
2022-07-29T23:16:26.303Z,8.27
2022-07-29T23:18:30.885Z,7.70
2022-07-29T23:20:34.858Z,8.37
2022-07-29T23:22:44.095Z,7.70
2022-07-29T23:24:50.558Z,7.50
2022-07-29T23:26:54.957Z,8.10
2022-07-29T23:28:59.594Z,8.87
2022-07-29T23:31:03.447Z,10.40
2022-07-29T23:33:10.604Z,9.80
2022-07-29T23:35:15.609Z,9.93
2022-07-29T23:37:20.574Z,10.17
2022-07-29T23:39:24.506Z,8.97
2022-07-29T23:41:34.085Z,9.30
2022-07-29T23:43:46.198Z,9.53
2022-07-29T23:45:51.266Z,9.47
2022-07-29T23:47:57.902Z,10.10
2022-07-29T23:50:03.055Z,10.40
2022-07-29T23:52:07.848Z,8.80
2022-07-29T23:54:15.440Z,8.73
2022-07-29T23:56:19.414Z,10.10
2022-07-29T23:58:24.441Z,10.20
